Time;durP1;ratioP1;P1;durP2;ratioP2;P2;SDS_P1;SDS_P2;PMS_P1;PMS_P2;Temp;Humidity;BMP_temperature;BMP_pressure;BME280_temperature;BME280_humidity;BME280_pressure;Samples;Min_cycle;Max_cycle;Signal;HPM_P1;HPM_P2
2022/07/30 00:02:49;;;;;;;3.35;1.40;;;;;;;18.03;57.77;100647.36;3614017;80;98651;-80
2022/07/30 00:08:02;;;;;;;8.35;1.40;;;;;;;17.97;58.16;100645.63;3625582;79;98785;-83
2022/07/30 00:13:04;;;;;;;5.53;1.25;;;;;;;17.92;58.35;100636.36;3609768;80;98825;-80
2022/07/30 00:18:05;;;;;;;4.33;1.42;;;;;;;17.90;58.14;100631.03;3612958;79;98865;-81
2022/07/30 00:23:06;;;;;;;8.28;2.37;;;;;;;17.84;59.13;100627.14;3606619;80;98925;-79
2022/07/30 00:28:07;;;;;;;3.12;1.35;;;;;;;17.79;58.45;100621.45;3588057;80;98710;-79
2022/07/30 00:33:08;;;;;;;4.47;1.42;;;;;;;17.76;58.97;100615.95;3593098;80;99213;-80
2022/07/30 00:38:09;;;;;;;2.62;1.02;;;;;;;17.71;58.70;100610.84;3565409;80;98626;-79
2022/07/30 00:43:15;;;;;;;3.22;1.25;;;;;;;17.69;58.58;100611.86;3592566;80;98777;-79
2022/07/30 00:48:20;;;;;;;5.70;1.75;;;;;;;17.64;58.79;100609.55;3591728;80;98991;-82
2022/07/30 00:53:21;;;;;;;4.50;1.40;;;;;;;17.64;59.02;100613.72;3597643;79;98870;-79
2022/07/30 00:58:22;;;;;;;11.83;1.70;;;;;;;17.59;59.08;100603.05;3604056;80;99065;-80
2022/07/30 01:03:23;;;;;;;6.67;1.60;;;;;;;17.53;59.27;100606.13;3597834;80;99260;-79
2022/07/30 01:08:24;;;;;;;4.25;1.65;;;;;;;17.48;59.52;100603.81;3603595;80;98607;-80
2022/07/30 01:13:25;;;;;;;4.55;1.52;;;;;;;17.45;59.69;100597.09;3603301;80;30794;-80
2022/07/30 01:19:47;;;;;;;6.03;1.75;;;;;;;17.43;59.89;100601.52;3603927;80;98806;-80
2022/07/30 01:23:37;;;;;;;3.43;1.60;;;;;;;17.41;59.86;100611.67;3609026;79;98930;-81
2022/07/30 01:28:42;;;;;;;5.45;1.82;;;;;;;17.44;59.60;100612.21;3561873;80;98582;-80
2022/07/30 01:33:47;;;;;;;5.77;2.37;;;;;;;17.46;59.59;100598.69;3609453;80;98642;-81
2022/07/30 01:38:50;;;;;;;7.10;1.70;;;;;;;17.45;60.13;100590.75;3599571;80;99139;-79
2022/07/30 01:43:59;;;;;;;5.72;2.05;;;;;;;17.43;60.32;100576.48;3619842;80;25936;-78
2022/07/30 01:49:02;;;;;;;5.87;1.98;;;;;;;17.42;59.99;100570.70;3601498;80;98797;-79
2022/07/30 01:54:06;;;;;;;8.53;1.67;;;;;;;17.38;59.95;100565.20;3592617;80;98972;-80
2022/07/30 01:59:09;;;;;;;6.40;1.80;;;;;;;17.39;60.31;100567.39;3583459;80;99177;-79
2022/07/30 02:04:12;;;;;;;6.58;1.62;;;;;;;17.31;60.67;100576.99;3587135;80;31698;-80
2022/07/30 02:09:18;;;;;;;5.72;1.90;;;;;;;17.26;60.91;100577.46;3565752;80;98933;-79
2022/07/30 02:14:30;;;;;;;5.03;1.62;;;;;;;17.21;60.69;100568.98;3576103;81;99134;-79
2022/07/30 02:19:41;;;;;;;3.37;1.47;;;;;;;17.17;61.08;100564.69;3577737;80;99082;-80
2022/07/30 02:24:43;;;;;;;7.95;2.20;;;;;;;17.12;61.18;100561.75;3590120;80;98795;-79
2022/07/30 02:29:46;;;;;;;5.15;1.75;;;;;;;17.04;61.35;100553.92;3585261;81;98548;-81
2022/07/30 02:34:53;;;;;;;6.58;1.90;;;;;;;17.03;61.70;100556.52;3571049;81;31741;-79
2022/07/30 02:39:59;;;;;;;4.35;1.62;;;;;;;17.03;61.83;100552.34;3583716;80;98623;-78
2022/07/30 02:45:01;;;;;;;8.57;2.27;;;;;;;17.04;61.76;100548.36;3557448;81;98675;-81
2022/07/30 02:50:05;;;;;;;4.67;1.90;;;;;;;17.01;61.92;100549.20;3594176;80;98848;-79
2022/07/30 02:55:10;;;;;;;4.90;1.85;;;;;;;17.00;62.07;100549.80;3570833;80;98909;-80
2022/07/30 03:00:12;;;;;;;6.53;1.77;;;;;;;16.97;61.96;100554.02;3602682;80;99180;-80
2022/07/30 03:05:21;;;;;;;4.97;1.50;;;;;;;16.95;62.10;100544.70;3585463;81;99245;-79
2022/07/30 03:10:24;;;;;;;3.83;2.00;;;;;;;16.99;62.18;100546.04;3581031;81;98324;-80
2022/07/30 03:15:28;;;;;;;6.37;2.00;;;;;;;16.94;62.26;100529.85;3576812;81;31632;-79
2022/07/30 03:20:33;;;;;;;7.15;2.00;;;;;;;16.93;62.39;100525.47;3617654;79;98801;-81
2022/07/30 03:25:35;;;;;;;5.47;1.70;;;;;;;16.90;62.58;100521.53;3600582;79;25963;-78
2022/07/30 03:30:43;;;;;;;5.10;1.85;;;;;;;16.91;62.60;100513.98;3575158;80;98866;-86
2022/07/30 03:35:46;;;;;;;6.10;1.62;;;;;;;16.89;62.69;100510.85;3588493;81;98930;-79
2022/07/30 03:41:07;;;;;;;7.53;1.75;;;;;;;16.89;62.82;100512.23;3590204;80;98413;-86
2022/07/30 03:46:09;;;;;;;6.62;1.95;;;;;;;16.89;63.07;100492.78;3573682;81;98810;-79
2022/07/30 03:51:10;;;;;;;3.00;1.75;;;;;;;16.88;63.34;100493.38;3596853;79;98796;-80
2022/07/30 03:56:13;;;;;;;2.17;1.20;;;;;;;16.86;63.74;100486.65;3626381;79;99273;-78
2022/07/30 04:01:17;;;;;;;3.33;1.70;;;;;;;16.86;63.46;100493.59;3626707;79;99272;-82
2022/07/30 04:06:18;;;;;;;4.67;1.90;;;;;;;16.89;63.48;100492.16;3601436;79;98793;-78
2022/07/30 04:11:22;;;;;;;4.08;1.70;;;;;;;16.90;63.51;100497.13;3563907;80;98318;-86
2022/07/30 04:16:34;;;;;;;6.78;1.98;;;;;;;16.92;63.56;100504.44;3644866;79;31670;-83
2022/07/30 04:21:40;;;;;;;5.05;1.90;;;;;;;16.93;63.97;100506.80;3588256;80;98722;-82
2022/07/30 04:26:41;;;;;;;5.35;1.82;;;;;;;16.95;63.96;100507.78;3625966;79;99180;-79
2022/07/30 04:31:47;;;;;;;5.40;1.50;;;;;;;17.00;63.83;100505.93;3635453;80;98868;-83
2022/07/30 04:36:49;;;;;;;5.12;1.80;;;;;;;17.03;64.09;100510.64;3558139;80;98937;-79
2022/07/30 04:41:50;;;;;;;5.08;1.95;;;;;;;17.09;64.03;100512.55;3619718;80;98916;-79
2022/07/30 04:46:51;;;;;;;5.27;1.70;;;;;;;17.15;64.27;100521.19;3629526;79;98502;-81
2022/07/30 04:51:53;;;;;;;5.13;2.20;;;;;;;17.23;64.07;100516.50;3643636;79;98689;-78
2022/07/30 04:56:59;;;;;;;7.20;1.90;;;;;;;17.33;64.12;100516.18;3626838;79;98625;-81
2022/07/30 05:02:01;;;;;;;4.92;1.92;;;;;;;17.42;64.18;100514.47;3625179;79;98859;-79
2022/07/30 05:07:12;;;;;;;4.33;2.10;;;;;;;17.49;64.40;100508.02;3562599;80;98683;-81
2022/07/30 05:12:13;;;;;;;4.70;1.98;;;;;;;17.60;64.28;100509.41;3618639;79;98927;-79
2022/07/30 05:17:24;;;;;;;5.58;1.72;;;;;;;17.72;64.11;100498.29;3583533;79;98821;-90
2022/07/30 05:22:28;;;;;;;5.40;1.75;;;;;;;17.82;64.29;100496.70;3575577;79;98534;-80
2022/07/30 05:27:28;;;;;;;5.03;1.82;;;;;;;17.92;64.26;100481.05;3564467;81;98674;-79
2022/07/30 05:32:29;;;;;;;4.58;2.10;;;;;;;18.05;64.45;100477.19;3548931;81;98974;-79
2022/07/30 05:37:33;;;;;;;4.95;2.05;;;;;;;18.20;64.03;100481.91;3560507;81;99270;-80
2022/07/30 05:42:34;;;;;;;4.62;1.90;;;;;;;18.29;64.01;100484.30;3532326;81;98804;-80
2022/07/30 05:47:35;;;;;;;4.90;1.98;;;;;;;18.43;63.85;100491.01;3525048;81;99094;-79
2022/07/30 05:52:36;;;;;;;7.15;2.10;;;;;;;18.54;63.58;100497.16;3530637;81;98539;-80
2022/07/30 05:57:41;;;;;;;4.47;1.75;;;;;;;18.63;63.58;100504.34;3550787;80;99076;-86
2022/07/30 06:02:41;;;;;;;5.67;2.08;;;;;;;18.74;63.39;100503.52;3560536;80;98885;-79
2022/07/30 06:07:42;;;;;;;4.40;1.75;;;;;;;18.82;63.57;100503.56;3560125;80;99144;-80
2022/07/30 06:12:45;;;;;;;3.62;1.90;;;;;;;18.92;63.38;100502.52;3579713;80;98938;-79
2022/07/30 06:17:47;;;;;;;4.95;1.70;;;;;;;19.01;63.17;100510.34;3522247;82;98865;-79
2022/07/30 06:22:55;;;;;;;3.30;1.80;;;;;;;19.04;63.18;100515.03;3607584;80;31730;-80
2022/07/30 06:27:56;;;;;;;4.50;1.80;;;;;;;19.17;63.27;100495.00;3597323;80;98722;-80
2022/07/30 06:32:57;;;;;;;5.75;1.70;;;;;;;19.17;63.27;100495.00;3615471;80;98938;-81
2022/07/30 06:37:59;;;;;;;3.67;2.00;;;;;;;19.45;62.74;100514.70;3610571;80;99148;-80
2022/07/30 06:43:07;;;;;;;3.75;2.00;;;;;;;19.59;62.60;100514.98;3609005;80;98769;-86
2022/07/30 06:48:08;;;;;;;7.70;2.22;;;;;;;19.73;62.28;100511.22;3597945;80;98847;-78
2022/07/30 06:53:13;;;;;;;8.80;2.25;;;;;;;19.75;61.99;100506.00;3605520;80;32320;-91
2022/07/30 06:58:23;;;;;;;4.58;1.87;;;;;;;19.86;61.96;100503.73;3583599;80;98961;-84
2022/07/30 07:03:25;;;;;;;5.17;2.12;;;;;;;20.03;61.88;100514.26;3578792;80;32263;-79
2022/07/30 07:08:26;;;;;;;5.25;1.90;;;;;;;20.14;61.37;100512.80;3582279;80;98902;-78
2022/07/30 07:13:27;;;;;;;9.70;2.20;;;;;;;20.25;61.61;100517.48;3574451;81;99439;-79
2022/07/30 07:18:32;;;;;;;6.47;2.37;;;;;;;20.49;61.02;100509.66;3556694;81;99436;-83
2022/07/30 07:23:35;;;;;;;9.25;2.42;;;;;;;20.65;60.85;100503.38;3622563;79;26019;-82
2022/07/30 07:28:41;;;;;;;5.42;2.05;;;;;;;20.90;60.55;100502.68;3607705;80;98894;-81
2022/07/30 07:33:41;;;;;;;6.65;2.22;;;;;;;20.96;59.90;100504.48;3553159;79;98705;-82
2022/07/30 07:38:46;;;;;;;4.33;1.92;;;;;;;21.09;60.05;100492.69;3617431;79;98937;-81
2022/07/30 07:43:47;;;;;;;6.00;2.10;;;;;;;21.18;59.57;100494.81;3633520;80;99303;-79
2022/07/30 07:48:48;;;;;;;8.40;2.47;;;;;;;21.21;58.84;100498.91;3619316;80;98867;-92
2022/07/30 07:53:49;;;;;;;19.15;6.40;;;;;;;21.35;58.97;100497.67;3640418;80;31728;-83
2022/07/30 07:58:52;;;;;;;15.90;5.72;;;;;;;21.51;58.86;100494.16;3605817;80;99122;-84
2022/07/30 08:03:54;;;;;;;12.47;3.15;;;;;;;21.81;58.74;100492.80;3608990;80;25934;-80
2022/07/30 08:09:07;;;;;;;5.28;2.65;;;;;;;21.99;58.26;100485.36;3612899;80;98990;-90
2022/07/30 08:14:08;;;;;;;4.67;2.37;;;;;;;22.20;57.02;100486.02;3616807;80;31691;-80
2022/07/30 08:19:09;;;;;;;3.83;1.80;;;;;;;22.35;56.96;100483.48;3611700;80;98951;-81
2022/07/30 08:24:10;;;;;;;6.67;2.00;;;;;;;22.56;56.76;100485.55;3620260;80;31680;-80
2022/07/30 08:29:11;;;;;;;7.00;2.20;;;;;;;22.41;55.94;100489.47;3593838;80;98539;-81
2022/07/30 08:34:13;;;;;;;6.10;2.27;;;;;;;22.55;55.98;100490.38;3600777;80;99271;-82
2022/07/30 08:39:14;;;;;;;5.28;2.55;;;;;;;22.64;55.68;100481.23;3567852;80;98892;-80
2022/07/30 08:44:17;;;;;;;5.20;2.75;;;;;;;22.93;55.58;100486.72;3619273;80;98835;-80
2022/07/30 08:49:19;;;;;;;7.97;3.40;;;;;;;22.99;54.68;100484.87;3611233;80;98903;-80
2022/07/30 08:54:22;;;;;;;4.37;2.50;;;;;;;23.10;55.14;100474.02;3601898;80;32192;-82
2022/07/30 08:59:23;;;;;;;5.35;2.37;;;;;;;23.30;54.86;100472.26;3597394;80;98950;-84
2022/07/30 09:04:47;;;;;;;4.87;2.50;;;;;;;23.44;54.07;100470.29;3606517;80;98633;-85
2022/07/30 09:09:56;;;;;;;6.75;2.40;;;;;;;23.81;54.38;100472.72;3590921;80;98761;-89
2022/07/30 09:15:18;;;;;;;4.80;2.30;;;;;;;24.15;53.37;100475.28;3620623;80;98831;-89
2022/07/30 09:20:23;;;;;;;5.28;1.82;;;;;;;24.42;52.41;100473.88;3610675;79;98909;-81
2022/07/30 09:25:45;;;;;;;5.67;1.73;;;;;;;24.50;52.59;100470.91;3607204;80;99472;-81
2022/07/30 09:30:53;;;;;;;4.72;1.87;;;;;;;24.93;52.62;100471.95;3579244;79;99200;-83
2022/07/30 09:35:55;;;;;;;4.75;2.20;;;;;;;25.32;51.53;100463.06;3591162;81;26849;-79
2022/07/30 09:41:05;;;;;;;4.40;1.60;;;;;;;25.48;51.04;100457.03;3582161;79;98771;-93
2022/07/30 09:46:09;;;;;;;6.10;1.45;;;;;;;25.74;50.57;100454.70;3594762;81;98709;-89
2022/07/30 09:51:10;;;;;;;4.20;1.35;;;;;;;25.80;49.95;100453.41;3565621;80;99026;-81
2022/07/30 09:56:23;;;;;;;3.15;1.30;;;;;;;25.74;49.67;100459.55;3581461;80;98822;-94
2022/07/30 10:01:52;;;;;;;4.12;1.20;;;;;;;25.81;48.60;100453.55;3590815;80;98583;-87
2022/07/30 10:06:54;;;;;;;7.28;3.47;;;;;;;25.66;48.26;100455.55;3510660;80;99005;-79
2022/07/30 10:12:01;;;;;;;3.33;1.60;;;;;;;25.61;48.23;100447.74;3574647;81;31739;-83
2022/07/30 10:17:09;;;;;;;2.95;1.60;;;;;;;25.50;48.01;100458.12;3567945;81;99006;-82
2022/07/30 10:22:11;;;;;;;4.62;1.42;;;;;;;25.51;47.79;100453.27;3568141;81;98658;-80
2022/07/30 10:27:13;;;;;;;4.17;1.57;;;;;;;25.44;48.08;100447.35;3563563;81;98942;-79
2022/07/30 10:32:14;;;;;;;2.55;1.10;;;;;;;25.30;47.62;100449.48;3559159;80;99147;-81
2022/07/30 10:37:16;;;;;;;4.97;1.30;;;;;;;25.39;48.51;100450.81;3571464;81;99102;-80
2022/07/30 10:43:11;;;;;;;5.45;1.30;;;;;;;25.42;48.40;100453.31;3578959;81;25776;-87
2022/07/30 10:48:12;;;;;;;4.58;1.35;;;;;;;25.52;47.86;100453.42;3553642;81;98522;-82
2022/07/30 10:53:38;;;;;;;5.15;1.60;;;;;;;25.31;47.72;100443.98;3576190;81;98792;-85
2022/07/30 10:59:01;;;;;;;5.20;1.70;;;;;;;25.24;47.20;100446.34;3563197;80;98858;-83
2022/07/30 11:04:26;;;;;;;3.47;1.45;;;;;;;25.05;47.04;100442.02;3566461;80;98677;-79
2022/07/30 11:09:39;;;;;;;2.98;1.50;;;;;;;25.05;47.78;100445.62;3559432;80;99034;-79
2022/07/30 11:14:57;;;;;;;3.35;1.22;;;;;;;25.19;47.81;100442.14;3557792;81;99166;-83
2022/07/30 11:20:08;;;;;;;4.83;1.98;;;;;;;25.26;47.14;100434.77;3505140;82;98701;-79
2022/07/30 11:25:31;;;;;;;4.87;1.30;;;;;;;25.14;46.96;100447.63;3512846;82;98795;-79
2022/07/30 11:30:37;;;;;;;5.22;1.30;;;;;;;25.02;45.84;100440.17;3553284;81;99434;-87
2022/07/30 11:35:38;;;;;;;1.90;1.20;;;;;;;24.73;46.39;100437.14;3580140;81;98437;-78
2022/07/30 11:40:51;;;;;;;4.28;1.12;;;;;;;24.63;46.27;100437.00;3566776;80;98828;-86
2022/07/30 11:46:21;;;;;;;2.22;1.10;;;;;;;24.43;46.27;100445.12;3581152;81;98954;-80
2022/07/30 11:51:18;;;;;;;2.70;1.20;;;;;;;24.25;47.09;100443.73;3554311;81;98935;-78
2022/07/30 11:56:19;;;;;;;4.22;1.52;;;;;;;24.13;47.88;100447.50;3612817;80;98812;-81
2022/07/30 12:01:20;;;;;;;3.30;1.40;;;;;;;24.01;48.51;100443.58;3565993;81;98888;-82
2022/07/30 12:06:22;;;;;;;2.80;1.22;;;;;;;23.83;48.26;100446.96;3565024;81;32385;-77
2022/07/30 12:11:25;;;;;;;5.47;1.72;;;;;;;23.70;48.33;100449.91;3555916;81;98596;-79
2022/07/30 12:16:30;;;;;;;3.33;1.10;;;;;;;23.69;48.62;100444.13;3578635;81;98706;-81
2022/07/30 12:21:33;;;;;;;6.30;1.40;;;;;;;23.53;48.91;100457.66;3553475;81;99492;-80
2022/07/30 12:26:36;;;;;;;4.25;1.32;;;;;;;23.50;49.76;100449.56;3590307;81;31837;-81
2022/07/30 12:31:38;;;;;;;6.58;1.50;;;;;;;23.49;50.05;100449.38;3581816;81;98878;-80
2022/07/30 12:36:39;;;;;;;5.35;1.37;;;;;;;23.53;50.44;100443.61;3573784;81;98518;-79
2022/07/30 12:41:45;;;;;;;3.47;1.20;;;;;;;23.57;50.91;100450.66;3575114;81;99250;-79
2022/07/30 12:46:49;;;;;;;;;;;;;;;23.59;51.33;100455.83;3556549;81;98562;-82
2022/07/30 12:51:52;;;;;;;2.00;1.25;;;;;;;23.55;52.80;100461.56;3555976;81;85506;-79
2022/07/30 12:57:03;;;;;;;4.40;1.65;;;;;;;23.48;52.92;100449.87;3542202;81;99392;-79
2022/07/30 13:02:04;;;;;;;4.42;1.45;;;;;;;23.40;53.67;100452.18;3548854;81;98857;-79
2022/07/30 13:07:09;;;;;;;6.05;1.52;;;;;;;23.40;54.01;100452.80;3562116;81;98885;-80
2022/07/30 13:12:14;;;;;;;2.70;1.40;;;;;;;23.38;54.63;100457.46;3571425;81;26244;-79
2022/07/30 13:17:15;;;;;;;4.30;1.40;;;;;;;23.37;54.90;100463.56;3548837;81;99111;-80
2022/07/30 13:22:16;;;;;;;6.40;1.65;;;;;;;23.29;55.97;100462.27;3537680;81;98996;-79
2022/07/30 13:27:17;;;;;;;5.30;1.30;;;;;;;23.32;56.41;100461.36;3559152;81;98899;-77
2022/07/30 13:32:17;;;;;;;4.72;1.55;;;;;;;23.34;56.81;100463.87;3567751;80;99362;-77
2022/07/30 13:37:18;;;;;;;2.35;1.30;;;;;;;23.27;57.39;100462.73;3566164;81;99116;-79
2022/07/30 13:42:20;;;;;;;5.25;2.10;;;;;;;23.12;58.09;100457.51;3574880;81;31054;-78
2022/07/30 13:47:21;;;;;;;3.33;1.25;;;;;;;23.01;58.58;100450.73;3568918;81;98688;-80
2022/07/30 13:52:33;;;;;;;4.03;1.82;;;;;;;23.01;58.85;100472.59;3582813;80;98657;-79
2022/07/30 13:57:34;;;;;;;4.45;1.50;;;;;;;22.97;59.32;100470.53;3568313;81;99227;-82
2022/07/30 14:02:36;;;;;;;4.05;1.67;;;;;;;22.64;60.98;100470.80;3610423;80;99370;-78
2022/07/30 14:07:38;;;;;;;3.40;1.40;;;;;;;22.41;61.96;100466.23;3615480;80;98850;-83
2022/07/30 14:12:39;;;;;;;3.85;1.65;;;;;;;22.03;63.00;100476.22;3623068;80;31636;-83
2022/07/30 14:17:41;;;;;;;1.62;1.30;;;;;;;21.96;63.22;100473.64;3614563;80;99274;-84
2022/07/30 14:22:42;;;;;;;5.12;1.47;;;;;;;21.91;63.18;100476.25;3609744;80;98714;-84
2022/07/30 14:27:43;;;;;;;3.90;1.75;;;;;;;21.87;62.98;100474.17;3607721;80;98876;-82
2022/07/30 14:32:44;;;;;;;3.83;1.45;;;;;;;21.65;64.30;100465.69;3623297;80;98834;-81
2022/07/30 14:37:45;;;;;;;6.30;1.50;;;;;;;21.48;64.36;100462.83;3613169;80;98944;-80
2022/07/30 14:42:47;;;;;;;4.10;1.40;;;;;;;21.41;64.99;100463.70;3619575;80;31730;-82
2022/07/30 14:47:48;;;;;;;3.43;1.60;;;;;;;21.30;65.84;100471.66;3583589;80;98917;-81
2022/07/30 14:52:49;;;;;;;3.47;1.37;;;;;;;21.13;67.30;100472.98;3628971;80;98772;-81
2022/07/30 14:57:50;;;;;;;4.53;1.42;;;;;;;21.01;66.99;100472.36;3626048;80;99176;-80
2022/07/30 15:02:51;;;;;;;6.10;1.40;;;;;;;20.99;66.96;100467.20;3612131;80;98940;-80
2022/07/30 15:07:52;;;;;;;2.45;1.57;;;;;;;20.97;67.33;100469.67;3619380;80;98887;-80
2022/07/30 15:12:53;;;;;;;2.85;1.55;;;;;;;20.84;68.11;100461.06;3630402;80;27817;-80
2022/07/30 15:17:54;;;;;;;4.17;1.52;;;;;;;20.76;68.57;100461.89;3619462;80;99135;-80
2022/07/30 15:22:55;;;;;;;3.98;1.55;;;;;;;20.66;69.03;100462.22;3624068;80;98726;-80
2022/07/30 15:27:56;;;;;;;4.50;1.42;;;;;;;20.69;69.23;100460.71;3620492;80;98807;-82
2022/07/30 15:33:06;;;;;;;3.27;1.60;;;;;;;20.65;69.38;100462.05;3619790;79;98872;-82
2022/07/30 15:38:07;;;;;;;3.62;2.02;;;;;;;20.67;69.28;100459.59;3616362;80;98883;-84
2022/07/30 15:43:08;;;;;;;1.85;1.27;;;;;;;20.66;69.94;100457.39;3619185;80;98852;-84
2022/07/30 15:48:09;;;;;;;5.85;1.50;;;;;;;20.62;70.32;100459.53;3621959;80;98687;-84
2022/07/30 15:53:11;;;;;;;6.35;1.92;;;;;;;20.53;70.55;100457.19;3630347;80;99150;-83
2022/07/30 15:58:14;;;;;;;3.40;1.67;;;;;;;20.56;70.76;100461.91;3623645;80;98843;-81
2022/07/30 16:03:24;;;;;;;4.87;1.72;;;;;;;20.56;71.12;100448.73;3609814;80;98881;-83
2022/07/30 16:08:26;;;;;;;4.03;2.00;;;;;;;20.54;71.68;100443.41;3556654;80;98985;-83
2022/07/30 16:13:27;;;;;;;6.55;2.17;;;;;;;20.53;71.88;100442.61;3599247;80;98781;-85
2022/07/30 16:18:28;;;;;;;3.62;2.02;;;;;;;20.50;72.89;100443.48;3586884;80;98853;-83
2022/07/30 16:23:29;;;;;;;4.28;2.10;;;;;;;20.41;73.04;100442.57;3589655;80;98692;-81
2022/07/30 16:28:31;;;;;;;3.40;2.10;;;;;;;20.29;73.65;100444.72;3552554;80;98973;-82
2022/07/30 16:33:33;;;;;;;4.45;1.90;;;;;;;20.19;73.78;100445.79;3565314;81;99350;-83
2022/07/30 16:38:36;;;;;;;5.50;2.45;;;;;;;20.16;74.04;100450.88;3557269;80;99017;-83
2022/07/30 16:43:37;;;;;;;7.67;2.05;;;;;;;20.15;73.93;100454.28;3588400;80;98871;-84
2022/07/30 16:48:40;;;;;;;3.10;1.67;;;;;;;20.14;74.01;100451.92;3576714;80;99066;-82
2022/07/30 16:53:43;;;;;;;6.37;2.45;;;;;;;20.04;74.44;100457.95;3550699;80;97830;-83
2022/07/30 16:58:45;;;;;;;4.87;2.20;;;;;;;20.01;74.67;100452.45;3561542;80;98739;-83
2022/07/30 17:03:46;;;;;;;4.37;2.33;;;;;;;19.92;75.01;100448.89;3561415;80;98835;-82
2022/07/30 17:08:47;;;;;;;3.80;2.08;;;;;;;19.83;75.40;100457.73;3563484;81;98944;-83
2022/07/30 17:13:48;;;;;;;4.50;2.02;;;;;;;19.80;75.29;100462.78;3567636;80;98904;-84
2022/07/30 17:18:53;;;;;;;9.05;2.60;;;;;;;19.79;75.79;100471.00;3537990;81;98631;-88
2022/07/30 17:23:54;;;;;;;5.37;2.35;;;;;;;19.75;75.51;100478.67;3559751;81;98577;-82
2022/07/30 17:28:55;;;;;;;6.08;2.75;;;;;;;19.70;75.68;100477.80;3550004;80;99164;-82
2022/07/30 17:33:56;;;;;;;6.65;2.70;;;;;;;19.69;75.85;100478.44;3570638;81;99013;-82
2022/07/30 17:39:02;;;;;;;3.95;2.20;;;;;;;19.70;75.83;100475.02;3558360;80;98982;-82
2022/07/30 17:44:10;;;;;;;4.60;2.30;;;;;;;19.72;75.71;100477.55;3561672;81;98826;-82
2022/07/30 17:49:11;;;;;;;4.97;2.67;;;;;;;19.73;75.76;100485.32;3552067;80;99523;-83
2022/07/30 17:54:12;;;;;;;5.60;3.15;;;;;;;19.74;75.58;100478.50;3568093;80;35091;-83
2022/07/30 17:59:15;;;;;;;7.92;3.20;;;;;;;19.74;75.67;100479.30;3520292;80;98687;-82
2022/07/30 18:04:21;;;;;;;7.15;3.55;;;;;;;19.75;75.58;100485.66;3562916;81;98857;-83
2022/07/30 18:09:28;;;;;;;6.35;3.85;;;;;;;19.73;75.79;100480.50;3551775;80;98915;-83
2022/07/30 18:14:36;;;;;;;10.85;4.90;;;;;;;19.72;75.67;100485.16;3563562;81;98852;-84
2022/07/30 18:19:37;;;;;;;6.95;3.75;;;;;;;19.70;75.82;100491.17;3551768;81;99603;-85
2022/07/30 18:24:39;;;;;;;5.12;2.62;;;;;;;19.68;76.03;100488.64;3570129;80;34907;-84
2022/07/30 18:29:40;;;;;;;6.70;2.50;;;;;;;19.66;75.99;100496.05;3621394;80;98641;-85
2022/07/30 18:34:41;;;;;;;5.20;2.47;;;;;;;19.65;76.07;100504.25;3632287;80;98726;-86
2022/07/30 18:39:42;;;;;;;7.17;3.50;;;;;;;19.63;76.19;100512.89;3615106;80;98937;-86
2022/07/30 18:44:44;;;;;;;5.22;2.72;;;;;;;19.60;76.35;100525.72;3626068;80;98926;-87
2022/07/30 18:49:45;;;;;;;5.67;2.70;;;;;;;19.58;76.54;100523.19;3605463;80;98922;-86
2022/07/30 18:54:46;;;;;;;7.87;3.20;;;;;;;19.57;76.75;100527.20;3634400;80;34277;-86
2022/07/30 18:59:47;;;;;;;5.95;2.85;;;;;;;19.54;76.83;100533.05;3619509;80;98755;-86
2022/07/30 19:04:49;;;;;;;6.42;3.42;;;;;;;19.52;76.95;100531.91;3599464;80;99196;-85
2022/07/30 19:09:54;;;;;;;9.23;3.70;;;;;;;19.50;77.08;100541.34;3592439;80;98980;-84
2022/07/30 19:14:55;;;;;;;8.70;4.08;;;;;;;19.47;77.25;100540.80;3600427;80;98848;-85
2022/07/30 19:19:58;;;;;;;6.78;3.60;;;;;;;19.44;77.29;100543.05;3577944;80;98960;-85
2022/07/30 19:25:00;;;;;;;6.28;3.50;;;;;;;19.41;77.36;100546.09;3587724;80;34857;-86
2022/07/30 19:30:02;;;;;;;7.15;3.30;;;;;;;19.39;77.46;100555.52;3587568;80;98912;-86
2022/07/30 19:35:10;;;;;;;7.97;3.47;;;;;;;19.38;77.58;100547.57;3595883;79;98651;-86
2022/07/30 19:40:12;;;;;;;10.32;4.15;;;;;;;19.34;77.65;100554.64;3581728;80;99163;-88
2022/07/30 19:45:14;;;;;;;7.83;3.67;;;;;;;19.30;77.84;100550.36;3546223;80;99186;-85
2022/07/30 19:50:15;;;;;;;6.15;3.92;;;;;;;19.23;77.95;100540.77;3549212;80;98775;-86
2022/07/30 19:55:20;;;;;;;8.15;3.72;;;;;;;19.24;78.29;100551.47;3593030;79;98570;-85
2022/07/30 20:00:23;;;;;;;9.53;4.10;;;;;;;19.22;78.43;100553.13;3583608;79;98796;-84
2022/07/30 20:05:24;;;;;;;8.23;4.95;;;;;;;19.19;78.48;100553.34;3478563;81;98817;-83
2022/07/30 20:10:25;;;;;;;8.30;4.83;;;;;;;19.17;78.64;100561.37;3461933;83;98895;-81
2022/07/30 20:15:27;;;;;;;9.05;4.50;;;;;;;19.16;78.85;100552.03;3467535;83;98839;-81
2022/07/30 20:20:28;;;;;;;10.93;4.62;;;;;;;19.14;79.06;100553.84;3479044;83;98620;-82
2022/07/30 20:25:29;;;;;;;7.80;4.45;;;;;;;19.14;79.11;100555.87;3483751;82;98737;-82
2022/07/30 20:30:31;;;;;;;8.00;4.05;;;;;;;19.12;79.30;100554.13;3471166;82;98818;-82
2022/07/30 20:35:32;;;;;;;8.08;3.47;;;;;;;19.11;79.73;100560.91;3487396;82;98717;-83
2022/07/30 20:40:33;;;;;;;10.28;4.45;;;;;;;19.09;79.63;100552.98;3571724;80;98789;-88
2022/07/30 20:45:40;;;;;;;7.56;4.00;;;;;;;19.08;79.79;100552.78;3560593;80;99027;-88
2022/07/30 20:50:40;;;;;;;10.27;3.40;;;;;;;19.07;79.86;100551.84;3553396;80;99197;-88
2022/07/30 20:55:41;;;;;;;6.42;3.50;;;;;;;19.06;79.96;100552.44;3570287;80;34849;-86
2022/07/30 21:00:42;;;;;;;5.58;3.20;;;;;;;19.04;80.33;100548.52;3564718;79;98897;-87
2022/07/30 21:05:45;;;;;;;6.15;3.33;;;;;;;19.01;80.17;100542.41;3579980;80;97928;-87
2022/07/30 21:10:46;;;;;;;6.45;3.20;;;;;;;19.01;80.22;100541.78;3532054;82;98813;-87
2022/07/30 21:15:47;;;;;;;7.00;3.27;;;;;;;19.00;80.45;100536.63;3601243;79;98775;-87
2022/07/30 21:20:48;;;;;;;8.05;3.27;;;;;;;19.00;80.45;100536.63;3567136;80;98834;-87
2022/07/30 21:25:49;;;;;;;7.95;3.25;;;;;;;18.98;80.62;100546.05;3580192;81;33741;-87
2022/07/30 21:30:51;;;;;;;10.82;3.95;;;;;;;18.96;80.71;100533.92;3547357;81;98819;-87
2022/07/30 21:35:52;;;;;;;6.47;3.30;;;;;;;18.94;80.81;100544.73;3556920;80;99318;-87
2022/07/30 21:40:53;;;;;;;8.08;3.83;;;;;;;18.92;80.86;100538.02;3548827;81;98762;-88
2022/07/30 21:45:54;;;;;;;8.40;3.77;;;;;;;18.90;81.00;100542.63;3566546;81;99213;-88
2022/07/30 21:50:55;;;;;;;7.97;3.92;;;;;;;18.89;80.99;100544.44;3563760;81;98752;-88
2022/07/30 21:55:57;;;;;;;7.90;3.77;;;;;;;18.88;81.19;100533.91;3561630;81;34192;-88
2022/07/30 22:01:03;;;;;;;5.95;3.40;;;;;;;18.81;81.20;100521.48;3533099;81;98693;-88
2022/07/30 22:06:04;;;;;;;7.60;3.70;;;;;;;18.85;81.38;100531.97;3521563;81;98712;-88
2022/07/30 22:11:05;;;;;;;6.30;3.80;;;;;;;18.84;81.39;100517.05;3540328;82;98844;-88
2022/07/30 22:16:06;;;;;;;7.83;3.52;;;;;;;18.84;81.58;100514.27;3544278;82;98805;-88
2022/07/30 22:21:07;;;;;;;8.40;3.35;;;;;;;18.81;81.66;100510.33;3532305;81;98734;-89
2022/07/30 22:26:08;;;;;;;6.12;3.05;;;;;;;18.81;81.76;100502.59;3532431;81;34182;-91
2022/07/30 22:31:09;;;;;;;6.70;3.58;;;;;;;18.79;81.77;100499.43;3557745;81;98966;-91
2022/07/30 22:36:10;;;;;;;6.67;3.37;;;;;;;18.78;81.96;100502.84;3562496;80;98638;-91
2022/07/30 22:41:12;;;;;;;7.45;3.50;;;;;;;18.77;82.02;100494.31;3555611;81;98863;-90
2022/07/30 22:46:13;;;;;;;6.35;3.65;;;;;;;18.74;82.08;100497.17;3550898;81;98883;-90
2022/07/30 22:51:14;;;;;;;6.42;3.00;;;;;;;18.72;82.01;100498.20;3580665;80;99267;-90
2022/07/30 22:56:18;;;;;;;5.12;3.10;;;;;;;18.68;82.08;100498.87;3572422;81;35506;-90
2022/07/30 23:01:18;;;;;;;9.98;3.75;;;;;;;18.66;82.13;100498.52;3569682;80;99132;-90
2022/07/30 23:06:19;;;;;;;7.60;4.37;;;;;;;18.64;82.35;100493.38;3571633;80;97996;-90
2022/07/30 23:11:20;;;;;;;8.18;4.20;;;;;;;18.62;82.34;100483.27;3589436;79;98863;-91
2022/07/30 23:16:21;;;;;;;7.70;4.70;;;;;;;18.61;82.34;100488.67;3612787;79;98839;-90
2022/07/30 23:21:22;;;;;;;9.05;4.75;;;;;;;18.60;82.60;100484.91;3590420;79;98819;-90
2022/07/30 23:26:23;;;;;;;9.20;4.70;;;;;;;18.58;82.55;100476.97;3657291;79;31105;-90
2022/07/30 23:31:24;;;;;;;9.53;5.22;;;;;;;18.57;82.59;100472.62;3662028;79;98947;-91